Rapid City, SD (57701)

7:11 PM MST on February 23, 2017 (GMT -0700)
| | Change Station
Active Advisory: Winter Storm Warning

Elev -9999 ft 0.00 °N, 0.00 °E | Updated 12 minutes ago

Snow
Snow
°F
Feels Like °F
N
Wind Variable Wind from North
Gusts mph

Today
High -- | Low -- °F
--% Chance of Precip.
Yesterday
High -- | Low -- °F
Precip. -- in
Pressure 30.06 in
Visibility 8.0 miles
Clouds Scattered Clouds 1800 ft
Overcast 2300 ft
Dew Point Not available.
Humidity Not available.
Rainfall --
Snow Depth Not available.
6:39 AM 5:33 PM
Waning Crescent, 7% visible
METAR KRAP 240152Z 03013KT 8SM -SN SCT018 OVC023 M03/M06 A2995 RMK AO2 SLP178 P0001 T10281056
Pressure 30.06 in
Visibility 8.0 miles
Clouds Scattered Clouds 1800 ft
Overcast 2300 ft
Dew Point Not available.
Humidity Not available.
Rainfall --
Snow Depth Not available.
6:39 AM 5:33 PM
Waning Crescent, 7% visible
METAR KRAP 240152Z 03013KT 8SM -SN SCT018 OVC023 M03/M06 A2995 RMK AO2 SLP178 P0001 T10281056

Get Your Daily Forecast Email!

Thanks for signing up!

Be on the lookout for a verification email in your inbox.

You'll start receiving the daily forecast at 8 AM.

×

10-Day Weather Forecast

Almanac

Astronomy

Feb. 23, 2017 Rise Set
Actual Time
Civil Twilight
Nautical Twilight
Astronomical Twilight
Moon
Length of Visible Light
Length of Day
Tomorrow will be .
, % of the Moon is Illuminated

Today's Extremes

State Highs State Lows

Community

WunderPhotos

Upload Photos

1,962,540 photos uploaded!

WunderBlog® & News

Nearby

Air Quality

  Air Quality AQ Index Pollutant
Not available.

Snow Depth

Station Depth Elevation

Earthquake Activity

City Distance Mag. Time & Date
Minimum magnitude displayed is 2.5.

Coastal Water Temperatures

Place Temperature

Stations

Nearby Weather Stations

Station Location Temp. Windchill Dew Point Humidity Wind Precip. Elev Updated Type
                   

Watches & Warnings

Winter Storm Warning
Issued: 5:22 PM MST Feb. 23, 2017 – National Weather Service

... Winter Storm Warning remains in effect until 5 am MST Friday...

* snow will continue through this evening, tapering off late
tonight.

* Additional snow accumulations of 2 to 5 inches are expected.

* Look for significant reductions in visibility at times.

* Icy and slippery spots will develop on the roads as temperatures
cool this evening. Travel will be hazardous through Friday morning.


Precautionary/preparedness actions...

A Winter Storm Warning for snow means severe winter weather
conditions are expected. If you must travel... keep an extra
flashlight... food and water in your vehicle in case of an
emergency. The latest Road conditions for the state you are
calling from can be obtained by calling 5 1 1.